Time;durP1;ratioP1;P1;durP2;ratioP2;P2;SDS_P1;SDS_P2;PMS_P1;PMS_P2;Temp;Humidity;BMP_temperature;BMP_pressure;BME280_temperature;BME280_humidity;BME280_pressure;Samples;Min_cycle;Max_cycle;Signal;HPM_P1;HPM_P2
2022/11/03 00:03:26;;;;;;;18.70;11.30;;;;;;;6.77;93.73;99411.36;214303;1309;22472;-75
2022/11/03 00:08:28;;;;;;;20.70;11.70;;;;;;;6.69;94.15;99417.55;214365;1309;22490;-75
2022/11/03 00:13:37;;;;;;;20.30;12.20;;;;;;;6.62;94.44;99420.55;214284;1310;25351;-75
2022/11/03 00:18:39;;;;;;;21.10;12.10;;;;;;;6.60;95.20;99431.06;214380;1310;25298;-75
2022/11/03 00:23:42;;;;;;;34.80;13.10;;;;;;;6.57;95.24;99432.52;214377;1310;24242;-75
2022/11/03 00:28:46;;;;;;;25.50;12.50;;;;;;;6.52;95.26;99428.14;214338;1310;25351;-75
2022/11/03 00:33:49;;;;;;;32.00;15.30;;;;;;;6.45;95.05;99424.58;214383;1310;22492;-75
2022/11/03 00:38:51;;;;;;;28.60;15.30;;;;;;;6.38;95.31;99421.80;214424;1310;26481;-74
2022/11/03 00:43:54;;;;;;;32.80;16.00;;;;;;;6.31;95.56;99426.36;214291;1310;22609;-75
2022/11/03 00:48:55;;;;;;;32.60;16.80;;;;;;;6.23;95.38;99430.80;214342;1310;22528;-75
2022/11/03 00:53:59;;;;;;;34.00;18.20;;;;;;;6.14;95.47;99427.59;214468;1310;25229;-75
2022/11/03 00:59:03;;;;;;;33.30;17.30;;;;;;;6.05;95.59;99421.66;214536;1310;22482;-75
2022/11/03 01:09:30;;;;;;;31.60;15.10;;;;;;;5.88;95.66;99434.55;214449;1310;22869;-74
2022/11/03 01:14:35;;;;;;;25.60;13.40;;;;;;;5.78;95.72;99439.70;214665;1310;22518;-75
2022/11/03 01:19:37;;;;;;;38.30;18.20;;;;;;;5.71;95.78;99440.25;214519;1310;25466;-74
2022/11/03 01:24:40;;;;;;;36.70;18.50;;;;;;;5.64;95.82;99436.70;214435;1310;23210;-75
2022/11/03 01:29:42;;;;;;;33.10;16.90;;;;;;;5.58;96.11;99431.66;214538;1310;22592;-74
2022/11/03 01:34:44;;;;;;;41.00;20.10;;;;;;;5.52;96.34;99427.51;214541;1310;25405;-75
2022/11/03 01:39:46;;;;;;;33.30;17.00;;;;;;;5.47;96.51;99429.33;214491;1310;24332;-75
2022/11/03 01:44:48;;;;;;;33.80;17.20;;;;;;;5.41;96.43;99426.88;214586;1309;22517;-75
2022/11/03 01:50:04;;;;;;;36.20;18.70;;;;;;;5.33;96.72;99433.75;214474;1310;25353;-75
2022/11/03 01:55:12;;;;;;;35.40;17.10;;;;;;;5.29;96.82;99428.41;214494;1310;22545;-74
2022/11/03 02:00:14;;;;;;;34.50;17.60;;;;;;;5.23;97.03;99425.91;214459;1310;24404;-75
2022/11/03 02:05:20;;;;;;;35.90;18.00;;;;;;;5.18;97.07;99416.66;214540;1310;22557;-75
2022/11/03 02:10:24;;;;;;;38.90;18.80;;;;;;;5.13;97.34;99413.18;214437;1310;114766;-75
2022/11/03 02:15:27;;;;;;;37.70;16.80;;;;;;;5.07;97.15;99413.62;214734;1310;22535;-75
2022/11/03 02:20:30;;;;;;;33.70;18.30;;;;;;;5.01;97.34;99410.95;214652;1310;24284;-75
2022/11/03 02:25:35;;;;;;;45.80;21.50;;;;;;;4.95;97.53;99410.72;214649;1309;26187;-75
2022/11/03 02:30:58;;;;;;;45.30;22.00;;;;;;;4.91;97.56;99409.16;214462;1310;25335;-75
2022/11/03 02:36:04;;;;;;;45.10;22.50;;;;;;;4.89;97.93;99402.89;214628;1307;22647;-75
2022/11/03 02:41:08;;;;;;;49.10;25.80;;;;;;;4.86;97.85;99409.60;214701;1310;25348;-75
2022/11/03 02:46:12;;;;;;;55.20;24.90;;;;;;;4.84;98.12;99412.67;214572;1310;24338;-75
2022/11/03 02:51:14;;;;;;;53.00;26.30;;;;;;;4.82;98.03;99408.38;214684;1310;22485;-75
2022/11/03 02:56:21;;;;;;;49.70;23.90;;;;;;;4.78;98.16;99408.52;214547;1310;22741;-75
2022/11/03 03:01:45;;;;;;;47.30;24.70;;;;;;;4.75;98.26;99407.94;214560;1304;22496;-76
2022/11/03 03:06:56;;;;;;;45.60;21.10;;;;;;;4.72;98.31;99409.09;214610;1310;22499;-75
2022/11/03 03:12:01;;;;;;;42.00;20.20;;;;;;;4.70;98.75;99408.14;214726;1309;23214;-75
2022/11/03 03:17:23;;;;;;;37.10;18.90;;;;;;;4.71;98.65;99407.27;214470;1310;24420;-75
2022/11/03 03:22:35;;;;;;;37.20;18.60;;;;;;;4.72;99.15;99412.73;214685;1310;22534;-75
2022/11/03 03:27:42;;;;;;;39.10;18.50;;;;;;;4.68;98.87;99413.09;214469;1310;24424;-75
2022/11/03 03:32:47;;;;;;;37.40;18.70;;;;;;;4.62;98.85;99410.99;214500;1310;25279;-75
2022/11/03 03:37:53;;;;;;;39.80;19.40;;;;;;;4.55;98.72;99409.95;214479;1310;22604;-75
2022/11/03 03:42:57;;;;;;;38.20;21.50;;;;;;;4.48;98.86;99415.17;214713;1310;24944;-75
2022/11/03 03:47:59;;;;;;;41.40;21.70;;;;;;;4.42;98.84;99407.24;214498;1310;24270;-75
2022/11/03 03:53:04;;;;;;;44.20;23.60;;;;;;;4.37;99.21;99411.48;214501;1310;22566;-75
2022/11/03 03:58:06;;;;;;;42.90;21.40;;;;;;;4.33;99.42;99407.29;214334;1310;24306;-75
2022/11/03 04:03:18;;;;;;;44.60;23.10;;;;;;;4.28;99.31;99405.81;214445;1310;22480;-74
2022/11/03 04:08:20;;;;;;;45.00;22.90;;;;;;;4.25;99.65;99396.73;214345;1310;27507;-75
2022/11/03 04:24:03;;;;;;;51.80;25.60;;;;;;;4.13;99.68;99398.58;214287;1308;22561;-74
2022/11/03 04:29:08;;;;;;;47.50;24.50;;;;;;;4.10;99.83;99390.14;214411;1310;25298;-74
2022/11/03 04:34:11;;;;;;;45.30;24.00;;;;;;;4.08;99.95;99388.86;214355;1310;24428;-75
2022/11/03 04:39:19;;;;;;;49.30;25.20;;;;;;;4.05;99.88;99388.39;214296;1311;22478;-75
2022/11/03 04:44:21;;;;;;;44.70;23.00;;;;;;;4.03;99.79;99386.46;214409;1310;24271;-75
2022/11/03 04:49:24;;;;;;;48.60;23.80;;;;;;;4.00;99.80;99379.67;214381;1310;22703;-74
2022/11/03 04:54:26;;;;;;;49.20;23.50;;;;;;;3.96;99.98;99383.73;214449;1310;22971;-75
2022/11/03 04:59:28;;;;;;;50.70;25.50;;;;;;;3.94;99.93;99374.79;214531;1310;22472;-75
2022/11/03 05:04:29;;;;;;;47.60;25.20;;;;;;;3.91;99.98;99367.40;214708;1310;22926;-75
2022/11/03 05:09:31;;;;;;;48.40;25.90;;;;;;;3.88;99.97;99363.98;214628;1310;25290;-74
2022/11/03 05:14:33;;;;;;;56.10;28.10;;;;;;;3.86;99.98;99361.91;214673;1303;23231;-75
2022/11/03 05:19:40;;;;;;;50.20;27.20;;;;;;;3.85;100.00;99355.05;214614;1310;22470;-75
2022/11/03 05:24:42;;;;;;;56.90;26.80;;;;;;;3.83;100.00;99354.05;214482;1310;23252;-75
2022/11/03 05:29:46;;;;;;;54.40;28.00;;;;;;;3.82;99.99;99350.84;214537;1297;23066;-75
2022/11/03 05:34:50;;;;;;;54.20;30.00;;;;;;;3.81;100.00;99358.40;214707;1287;22538;-75
2022/11/03 05:39:58;;;;;;;55.00;29.20;;;;;;;3.81;100.00;99357.55;214558;1298;22500;-75
2022/11/03 05:45:14;;;;;;;58.30;28.30;;;;;;;3.81;100.00;99357.39;214693;1310;22620;-75
2022/11/03 05:50:20;;;;;;;53.80;29.00;;;;;;;3.82;100.00;99349.84;214537;1310;22480;-75
2022/11/03 05:55:36;;;;;;;51.90;28.90;;;;;;;3.84;100.00;99356.20;214701;1310;22513;-75
2022/11/03 06:00:40;;;;;;;57.40;29.90;;;;;;;3.87;100.00;99354.18;214684;1304;25448;-75
2022/11/03 06:05:50;;;;;;;52.90;27.70;;;;;;;3.91;100.00;99354.77;214592;1310;22481;-75
2022/11/03 06:10:55;;;;;;;41.00;23.20;;;;;;;3.95;100.00;99355.73;214641;1310;25339;-74
2022/11/03 06:16:19;;;;;;;55.70;28.00;;;;;;;3.99;100.00;99355.00;214596;1310;25261;-75
2022/11/03 06:21:24;;;;;;;55.20;29.60;;;;;;;4.07;100.00;99353.15;214453;1310;22939;-75
2022/11/03 06:26:27;;;;;;;55.00;28.50;;;;;;;4.17;100.00;99347.54;214449;1310;22594;-74
2022/11/03 06:31:31;;;;;;;53.70;29.70;;;;;;;4.30;100.00;99344.48;214542;1310;22473;-75
2022/11/03 06:36:36;;;;;;;47.40;25.00;;;;;;;4.46;100.00;99346.89;214779;1278;24289;-74
2022/11/03 06:41:38;;;;;;;50.40;28.80;;;;;;;4.62;100.00;99347.84;214973;1295;25417;-73
2022/11/03 06:46:40;;;;;;;55.50;31.00;;;;;;;4.82;100.00;99347.59;214964;1285;22516;-73
2022/11/03 06:51:42;;;;;;;49.70;28.70;;;;;;;5.14;100.00;99348.77;214864;1287;25274;-74
2022/11/03 06:56:44;;;;;;;50.40;29.80;;;;;;;5.43;100.00;99350.60;215054;1277;25312;-73
2022/11/03 07:01:54;;;;;;;46.10;25.20;;;;;;;5.58;100.00;99345.11;215284;1278;23152;-73
2022/11/03 07:07:01;;;;;;;39.40;22.10;;;;;;;5.69;100.00;99344.05;215539;1277;24290;-73
2022/11/03 07:12:13;;;;;;;36.40;19.60;;;;;;;5.83;100.00;99338.20;215505;1282;24317;-74
2022/11/03 07:17:20;;;;;;;32.90;19.30;;;;;;;6.09;100.00;99331.24;215100;1281;22513;-72
2022/11/03 07:22:24;;;;;;;37.90;22.20;;;;;;;6.33;100.00;99323.67;215149;1277;22467;-72
2022/11/03 07:27:30;;;;;;;38.30;21.30;;;;;;;6.43;100.00;99313.46;215366;1278;22624;-73
2022/11/03 07:32:33;;;;;;;29.20;16.10;;;;;;;6.46;100.00;99309.45;215322;1277;22594;-73
2022/11/03 07:37:35;;;;;;;28.00;16.70;;;;;;;6.50;100.00;99308.66;215874;1285;100505;-72
2022/11/03 07:42:37;;;;;;;27.10;15.60;;;;;;;6.67;100.00;99305.64;215039;1309;100039;-72
2022/11/03 07:47:42;;;;;;;30.60;16.90;;;;;;;6.85;100.00;99301.69;215057;1304;100008;-73
2022/11/03 07:52:44;;;;;;;36.10;18.80;;;;;;;7.05;100.00;99301.94;215164;1290;100027;-73
2022/11/03 07:57:47;;;;;;;36.50;18.20;;;;;;;7.24;100.00;99300.61;215273;1278;22518;-74
2022/11/03 08:02:57;;;;;;;37.60;18.90;;;;;;;7.47;100.00;99289.08;215072;1285;99843;-73
2022/11/03 08:07:59;;;;;;;42.70;21.10;;;;;;;7.69;100.00;99288.60;215272;1278;99635;-73
2022/11/03 08:13:01;;;;;;;35.70;20.20;;;;;;;7.93;100.00;99283.19;214977;1280;99909;-73
2022/11/03 08:18:03;;;;;;;34.90;19.00;;;;;;;8.17;100.00;99275.42;215214;1295;99773;-72
2022/11/03 08:23:05;;;;;;;43.60;22.20;;;;;;;8.44;100.00;99265.77;215029;1284;99822;-73
2022/11/03 08:28:26;;;;;;;36.10;20.40;;;;;;;8.66;100.00;99263.77;215341;1278;100239;-73
2022/11/03 08:33:28;;;;;;;40.70;22.80;;;;;;;8.88;100.00;99256.60;215111;1288;24290;-73
2022/11/03 08:38:35;;;;;;;33.90;20.80;;;;;;;9.13;100.00;99251.68;215728;1295;99744;-74
2022/11/03 08:43:37;;;;;;;34.40;18.90;;;;;;;9.37;100.00;99250.00;215116;1284;99700;-73
2022/11/03 08:48:38;;;;;;;21.50;11.30;;;;;;;9.61;100.00;99243.98;215405;1285;99808;-73
2022/11/03 08:53:41;;;;;;;15.70;8.70;;;;;;;9.89;100.00;99241.14;215238;1285;100325;-74
2022/11/03 08:58:43;;;;;;;11.00;6.30;;;;;;;10.16;99.89;99233.23;215063;1280;100535;-73
2022/11/03 09:03:45;;;;;;;15.00;5.50;;;;;;;10.44;99.19;99227.02;215311;1277;25217;-74
2022/11/03 09:08:47;;;;;;;8.10;4.40;;;;;;;10.72;98.68;99222.95;215234;1278;99943;-74
2022/11/03 09:14:09;;;;;;;7.00;3.40;;;;;;;10.98;97.99;99223.52;215172;1282;99473;-74
2022/11/03 09:19:11;;;;;;;10.50;3.50;;;;;;;11.22;96.76;99217.17;215129;1281;99652;-74
2022/11/03 09:24:13;;;;;;;9.10;3.50;;;;;;;11.43;95.87;99219.08;215006;1300;99801;-74
2022/11/03 09:29:15;;;;;;;8.70;3.30;;;;;;;11.65;95.36;99215.84;215219;1284;99746;-74
2022/11/03 09:34:16;;;;;;;6.90;2.50;;;;;;;11.87;94.59;99212.18;215032;1288;99864;-75
2022/11/03 09:39:18;;;;;;;7.40;2.30;;;;;;;12.03;93.41;99201.43;215985;1297;24262;-75
2022/11/03 09:44:20;;;;;;;6.60;2.20;;;;;;;12.21;92.33;99196.55;215252;1285;99328;-74
2022/11/03 09:49:22;;;;;;;4.70;1.90;;;;;;;12.37;91.40;99188.23;214882;1285;99644;-74
2022/11/03 09:54:25;;;;;;;7.20;1.70;;;;;;;12.51;89.70;99178.31;215054;1295;99444;-74
2022/11/03 09:59:29;;;;;;;7.20;1.90;;;;;;;12.62;88.65;99161.59;214987;1288;99618;-75
2022/11/03 10:04:31;;;;;;;4.80;2.10;;;;;;;12.80;87.82;99159.01;215250;1285;99990;-74
2022/11/03 10:09:33;;;;;;;3.20;1.90;;;;;;;12.95;87.29;99148.00;215250;1284;24251;-75
2022/11/03 10:14:35;;;;;;;5.30;1.70;;;;;;;13.09;86.36;99141.64;215269;1281;99300;-73
2022/11/03 10:19:37;;;;;;;6.70;2.50;;;;;;;13.23;85.85;99131.77;215228;1304;99310;-73
2022/11/03 10:24:39;;;;;;;5.20;2.40;;;;;;;13.35;84.75;99121.86;215272;1285;99478;-73
2022/11/03 10:29:41;;;;;;;3.90;1.60;;;;;;;13.46;84.16;99117.35;215593;1294;100343;-74
2022/11/03 10:34:51;;;;;;;6.40;1.80;;;;;;;13.58;82.51;99105.77;215712;1311;99637;-72
2022/11/03 10:39:55;;;;;;;7.10;2.00;;;;;;;13.68;82.43;99098.31;216045;1285;22546;-72
2022/11/03 10:45:18;;;;;;;3.00;1.90;;;;;;;13.73;78.38;99090.50;215870;1289;99231;-75
2022/11/03 10:50:25;;;;;;;4.60;1.90;;;;;;;13.79;79.40;99091.77;216474;1312;99275;-78
2022/11/03 10:55:29;;;;;;;4.90;1.90;;;;;;;13.90;79.32;99085.63;214961;1310;99387;-75
2022/11/03 11:00:32;;;;;;;5.70;2.30;;;;;;;13.99;79.02;99074.93;215114;1285;99456;-76
2022/11/03 11:05:34;;;;;;;4.00;2.30;;;;;;;14.10;77.89;99061.81;215101;1283;99509;-78
2022/11/03 11:10:35;;;;;;;5.20;2.20;;;;;;;14.13;76.77;99056.39;216284;1308;99516;-74
2022/11/03 11:15:49;;;;;;;4.40;2.50;;;;;;;14.26;77.16;99053.04;215288;1292;22614;-75
2022/11/03 11:20:51;;;;;;;6.60;2.30;;;;;;;14.38;76.37;99045.86;215065;1309;99519;-75
2022/11/03 11:26:08;;;;;;;6.60;2.10;;;;;;;14.48;76.21;99040.38;214861;1284;99476;-75
2022/11/03 11:31:25;;;;;;;4.20;2.30;;;;;;;14.56;75.26;99033.23;215146;1309;99432;-75
2022/11/03 11:36:27;;;;;;;4.50;2.40;;;;;;;14.62;74.64;99015.52;215495;1285;98578;-76
2022/11/03 11:42:07;;;;;;;4.80;2.30;;;;;;;14.71;74.29;98999.65;215497;1308;99581;-75
2022/11/03 11:47:26;;;;;;;3.60;1.80;;;;;;;14.86;73.49;99000.08;215065;1302;99485;-74
2022/11/03 11:52:29;;;;;;;4.40;2.30;;;;;;;14.99;72.62;98988.56;215114;1286;99581;-74
2022/11/03 11:57:34;;;;;;;8.50;3.80;;;;;;;15.07;72.09;98974.73;214987;1310;22603;-73
2022/11/03 12:02:35;;;;;;;5.40;3.40;;;;;;;15.10;72.21;98964.19;215196;1284;99282;-72
2022/11/03 12:07:37;;;;;;;4.30;2.70;;;;;;;15.08;71.95;98956.16;214865;1289;99335;-72
2022/11/03 12:12:39;;;;;;;5.60;2.90;;;;;;;15.11;70.77;98949.45;214976;1309;100158;-73
2022/11/03 12:17:41;;;;;;;7.50;3.50;;;;;;;15.11;71.40;98939.91;215012;1310;99849;-72
2022/11/03 12:22:43;;;;;;;5.40;3.70;;;;;;;15.12;71.31;98929.16;214958;1291;99595;-73
2022/11/03 12:27:45;;;;;;;12.10;4.90;;;;;;;15.14;71.30;98920.30;215119;1285;22529;-74
2022/11/03 12:32:47;;;;;;;9.40;4.00;;;;;;;15.11;71.25;98905.21;215108;1309;99956;-73
2022/11/03 12:37:48;;;;;;;6.50;3.30;;;;;;;15.09;70.50;98901.19;215575;1284;99391;-74
2022/11/03 12:42:50;;;;;;;6.00;3.30;;;;;;;15.08;70.00;98889.18;215291;1298;99513;-73
2022/11/03 12:47:52;;;;;;;11.40;4.40;;;;;;;15.10;69.93;98876.17;215280;1294;99528;-72
2022/11/03 12:52:54;;;;;;;5.60;3.50;;;;;;;15.13;69.65;98871.61;215163;1284;99702;-73
2022/11/03 12:57:56;;;;;;;7.00;3.70;;;;;;;15.08;69.34;98863.60;215295;1298;23607;-73
2022/11/03 13:02:58;;;;;;;7.80;3.30;;;;;;;15.02;68.94;98860.40;215233;1309;100823;-72
2022/11/03 13:07:59;;;;;;;5.10;3.00;;;;;;;14.95;68.55;98854.92;215002;1291;99423;-73
2022/11/03 13:13:01;;;;;;;8.10;2.90;;;;;;;14.92;68.65;98844.06;214833;1310;99607;-73
2022/11/03 13:18:04;;;;;;;7.00;2.80;;;;;;;14.87;68.49;98834.77;215092;1284;99497;-72
2022/11/03 13:23:15;;;;;;;3.40;2.30;;;;;;;14.73;68.48;98827.70;215157;1284;99701;-74
2022/11/03 13:28:22;;;;;;;7.40;3.40;;;;;;;14.59;68.67;98823.59;214838;1302;99474;-73
2022/11/03 13:33:24;;;;;;;6.30;2.30;;;;;;;14.43;68.86;98811.42;215037;1310;25264;-73
2022/11/03 13:38:26;;;;;;;8.10;3.00;;;;;;;14.24;69.03;98811.45;215986;1287;99813;-73
2022/11/03 13:43:28;;;;;;;8.40;3.60;;;;;;;14.04;69.15;98807.09;215311;1284;99336;-75
2022/11/03 13:48:30;;;;;;;7.90;3.40;;;;;;;13.86;69.69;98802.77;215211;1285;99944;-73
2022/11/03 13:53:52;;;;;;;8.20;3.20;;;;;;;13.77;69.95;98792.96;214975;1310;99439;-73
2022/11/03 13:59:20;;;;;;;8.30;3.40;;;;;;;13.78;70.23;98790.75;208849;1326;544866;-73
2022/11/03 14:04:27;;;;;;;8.30;3.30;;;;;;;13.71;70.44;98785.89;211963;1302;136903;-73
2022/11/03 14:09:45;;;;;;;8.80;3.70;;;;;;;13.67;70.37;98780.23;211957;1300;115401;-73
2022/11/03 14:14:47;;;;;;;7.10;3.60;;;;;;;13.62;70.38;98784.90;212552;1291;136681;-73
2022/11/03 14:19:50;;;;;;;6.70;3.10;;;;;;;13.56;70.79;98778.45;212526;1297;136838;-73
2022/11/03 14:24:54;;;;;;;12.90;3.80;;;;;;;13.48;70.94;98772.76;212595;1298;137089;-72
2022/11/03 14:29:57;;;;;;;8.80;3.20;;;;;;;13.38;71.11;98772.37;212351;1290;137134;-73
2022/11/03 14:34:59;;;;;;;8.90;3.40;;;;;;;13.26;71.22;98768.30;212694;1291;137412;-75
2022/11/03 14:40:01;;;;;;;9.70;4.10;;;;;;;13.16;71.42;98766.13;213362;1296;22494;-71
2022/11/03 14:45:04;;;;;;;9.70;4.10;;;;;;;13.10;71.35;98757.27;212694;1296;136504;-73
2022/11/03 14:50:06;;;;;;;7.10;4.10;;;;;;;13.07;71.27;98749.84;212566;1290;137806;-72
2022/11/03 14:55:08;;;;;;;33.40;16.40;;;;;;;13.06;71.21;98742.54;212693;1290;137107;-73
2022/11/03 15:00:10;;;;;;;35.00;18.20;;;;;;;13.04;71.37;98740.81;212605;1292;138027;-72
2022/11/03 15:05:42;;;;;;;17.00;6.50;;;;;;;12.95;71.57;98737.11;212007;1306;22497;-72
2022/11/03 15:10:34;;;;;;;10.40;5.10;;;;;;;12.79;71.78;98730.69;212009;1320;22535;-72
2022/11/03 15:15:36;;;;;;;9.50;4.90;;;;;;;12.64;72.14;98721.55;212007;1309;22485;-73
2022/11/03 15:20:37;;;;;;;8.10;3.90;;;;;;;12.53;72.60;98715.84;212663;1312;22508;-72
2022/11/03 15:25:39;;;;;;;9.30;4.20;;;;;;;12.43;73.00;98707.07;212836;1317;22633;-73
2022/11/03 15:30:41;;;;;;;9.90;5.00;;;;;;;12.34;73.42;98701.25;212908;1317;22617;-72
2022/11/03 15:35:44;;;;;;;10.10;5.00;;;;;;;12.26;73.72;98688.95;214113;1310;22516;-72
2022/11/03 15:40:45;;;;;;;10.30;5.60;;;;;;;12.18;73.79;98683.92;214142;1307;23790;-72
2022/11/03 15:45:47;;;;;;;11.50;5.40;;;;;;;12.03;74.23;98676.17;213939;1310;23216;-73
2022/11/03 15:50:49;;;;;;;11.70;5.60;;;;;;;11.87;74.53;98673.98;213792;1310;25208;-72
2022/11/03 15:55:51;;;;;;;12.80;5.90;;;;;;;11.72;74.69;98667.84;213925;1310;25270;-71
2022/11/03 16:00:53;;;;;;;12.50;6.80;;;;;;;11.60;74.68;98663.94;213995;1310;24470;-74
2022/11/03 16:05:55;;;;;;;10.90;5.90;;;;;;;11.51;74.73;98659.05;213870;1310;22473;-72
2022/11/03 16:10:57;;;;;;;12.40;6.60;;;;;;;11.42;74.99;98660.45;214064;1310;24432;-72
2022/11/03 16:15:59;;;;;;;11.30;6.40;;;;;;;11.34;75.17;98659.42;213891;1310;25261;-72
2022/11/03 16:21:01;;;;;;;13.00;6.60;;;;;;;11.24;75.37;98656.05;214036;1310;24306;-72
2022/11/03 16:26:04;;;;;;;17.30;9.10;;;;;;;11.15;75.55;98646.73;213933;1310;24284;-72
2022/11/03 16:31:06;;;;;;;15.10;7.70;;;;;;;11.06;75.64;98634.17;213981;1309;25351;-71
2022/11/03 16:36:08;;;;;;;21.70;9.90;;;;;;;11.02;76.05;98626.41;213990;1310;24246;-72
2022/11/03 16:41:10;;;;;;;26.10;11.30;;;;;;;10.98;76.20;98616.24;213925;1309;25468;-72
2022/11/03 16:46:12;;;;;;;26.70;11.90;;;;;;;10.92;76.47;98613.66;213909;1310;22492;-73
2022/11/03 16:51:14;;;;;;;19.50;10.00;;;;;;;10.79;76.68;98614.53;214098;1310;25404;-72
2022/11/03 16:56:16;;;;;;;20.50;9.70;;;;;;;10.66;77.07;98609.81;213799;1310;22468;-75
2022/11/03 17:01:17;;;;;;;19.30;9.40;;;;;;;10.52;77.46;98600.16;213911;1310;26421;-72
2022/11/03 17:06:20;;;;;;;18.00;8.00;;;;;;;10.47;78.04;98593.08;213999;1310;24114;-72
2022/11/03 17:11:55;;;;;;;14.90;7.60;;;;;;;10.50;78.21;98590.94;214031;1310;25528;-72
2022/11/03 17:16:49;;;;;;;14.20;7.50;;;;;;;10.60;78.62;98588.02;213963;1310;22532;-72
2022/11/03 17:21:52;;;;;;;16.40;7.10;;;;;;;10.68;78.51;98594.94;214067;1302;22483;-72
2022/11/03 17:27:06;;;;;;;19.70;8.10;;;;;;;10.73;78.68;98597.42;213995;1310;25218;-73
2022/11/03 17:32:20;;;;;;;18.70;8.60;;;;;;;10.81;78.59;98599.55;213997;1310;24284;-72
2022/11/03 17:37:23;;;;;;;16.90;8.10;;;;;;;10.88;78.70;98591.92;213881;1310;24985;-72
2022/11/03 17:42:27;;;;;;;17.00;8.00;;;;;;;10.94;78.45;98586.94;214306;1310;22459;-72
2022/11/03 17:47:30;;;;;;;16.50;6.90;;;;;;;11.03;78.47;98576.27;213892;1310;22471;-73
2022/11/03 17:52:32;;;;;;;15.90;8.10;;;;;;;11.13;78.38;98562.41;213958;1310;25223;-72
2022/11/03 17:57:35;;;;;;;16.00;8.30;;;;;;;11.20;78.45;98547.02;213744;1310;22524;-71
2022/11/03 18:02:39;;;;;;;14.00;7.70;;;;;;;11.22;78.23;98532.71;213719;1298;22486;-72
2022/11/03 18:07:41;;;;;;;16.10;8.30;;;;;;;11.24;78.40;98524.40;214000;1310;23893;-72
2022/11/03 18:18:13;;;;;;;13.70;7.50;;;;;;;11.28;78.33;98523.04;213824;1310;24269;-73
2022/11/03 18:23:29;;;;;;;15.50;7.80;;;;;;;11.29;78.32;98516.17;213896;1310;22470;-73
2022/11/03 18:28:31;;;;;;;16.50;7.70;;;;;;;11.32;78.36;98507.36;213872;1310;24787;-73
2022/11/03 18:33:34;;;;;;;20.50;9.40;;;;;;;11.30;78.11;98501.48;214203;1308;25394;-72
2022/11/03 18:38:40;;;;;;;20.90;9.60;;;;;;;11.30;78.22;98488.14;214188;1308;24296;-72
2022/11/03 18:43:42;;;;;;;21.40;9.90;;;;;;;11.30;78.00;98484.98;214202;1308;25335;-72
2022/11/03 18:48:43;;;;;;;21.00;11.00;;;;;;;11.27;78.15;98479.55;214195;1308;24281;-74
2022/11/03 18:53:45;;;;;;;21.50;10.10;;;;;;;11.26;78.10;98468.32;214243;1308;23021;-73
2022/11/03 18:58:51;;;;;;;21.50;10.60;;;;;;;11.24;78.08;98464.61;214074;1308;22474;-71
2022/11/03 19:03:55;;;;;;;24.90;12.70;;;;;;;11.22;78.26;98458.05;213987;1308;22476;-73
2022/11/03 19:08:58;;;;;;;20.10;10.90;;;;;;;11.20;78.20;98446.46;214128;1308;23434;-72
2022/11/03 19:14:00;;;;;;;21.60;10.60;;;;;;;11.15;78.33;98438.11;214043;1308;24338;-72
2022/11/03 19:19:02;;;;;;;22.90;13.00;;;;;;;11.09;78.41;98430.29;214015;1308;22510;-72
2022/11/03 19:24:05;;;;;;;24.00;11.90;;;;;;;11.05;78.43;98425.17;213992;1294;22479;-72
2022/11/03 19:29:13;;;;;;;20.50;11.30;;;;;;;11.02;78.71;98418.46;214091;1308;25266;-72
2022/11/03 19:34:18;;;;;;;21.50;11.80;;;;;;;10.99;78.77;98411.30;214052;1308;22472;-72
2022/11/03 19:39:34;;;;;;;21.10;11.60;;;;;;;10.95;78.89;98402.22;214046;1308;22476;-71
2022/11/03 19:44:36;;;;;;;19.60;10.80;;;;;;;10.91;79.00;98390.02;214103;1308;22491;-72
2022/11/03 19:49:38;;;;;;;20.70;11.20;;;;;;;10.87;79.08;98386.36;214186;1308;25473;-73
2022/11/03 19:54:47;;;;;;;24.50;12.70;;;;;;;10.81;79.07;98377.10;214042;1308;24371;-72
2022/11/03 19:59:49;;;;;;;22.80;11.70;;;;;;;10.75;79.10;98373.24;214027;1309;24287;-73
2022/11/03 20:04:51;;;;;;;30.00;13.30;;;;;;;10.67;79.22;98371.42;213830;1308;22936;-72
2022/11/03 20:09:52;;;;;;;23.90;13.50;;;;;;;10.55;79.47;98359.02;214028;1308;22917;-72
2022/11/03 20:14:54;;;;;;;25.60;12.80;;;;;;;10.41;79.69;98358.48;214111;1306;23139;-71
2022/11/03 20:19:56;;;;;;;29.80;15.30;;;;;;;10.27;79.84;98355.35;214042;1308;23070;-71
2022/11/03 20:25:02;;;;;;;25.10;13.60;;;;;;;10.17;80.25;98353.39;213887;1308;25225;-74
2022/11/03 20:30:04;;;;;;;30.30;14.90;;;;;;;10.08;80.52;98345.29;214111;1308;23375;-72
2022/11/03 20:35:12;;;;;;;27.30;13.20;;;;;;;10.03;80.76;98341.42;214129;1308;22524;-71
2022/11/03 20:40:18;;;;;;;24.90;13.40;;;;;;;10.01;81.03;98338.52;214003;1308;22516;-72
2022/11/03 20:45:22;;;;;;;28.10;13.60;;;;;;;9.98;81.05;98328.48;213796;1308;22575;-72
2022/11/03 20:50:24;;;;;;;27.60;13.70;;;;;;;9.93;81.43;98322.77;214029;1308;23921;-73
2022/11/03 20:55:26;;;;;;;25.00;13.80;;;;;;;9.89;81.72;98319.40;214170;1307;22608;-72
2022/11/03 21:00:30;;;;;;;29.10;15.20;;;;;;;9.90;81.91;98321.47;214029;1308;23739;-73
2022/11/03 21:05:32;;;;;;;28.50;12.20;;;;;;;9.91;81.96;98324.41;214070;1308;22597;-72
2022/11/03 21:10:34;;;;;;;26.90;14.20;;;;;;;9.91;81.98;98323.88;213967;1308;25020;-73
2022/11/03 21:21:19;;;;;;;35.30;17.50;;;;;;;9.93;82.01;98308.70;214093;1306;22471;-72
2022/11/03 21:26:22;;;;;;;27.30;14.20;;;;;;;9.93;82.12;98300.92;214091;1308;24437;-72
2022/11/03 21:31:23;;;;;;;32.50;16.00;;;;;;;9.94;82.26;98291.74;214052;1309;22476;-72
2022/11/03 21:36:25;;;;;;;29.70;14.90;;;;;;;9.93;82.29;98283.80;214101;1308;22502;-72
2022/11/03 21:46:48;;;;;;;29.00;14.60;;;;;;;9.93;82.59;98264.55;214049;1308;25234;-73
2022/11/03 21:51:50;;;;;;;29.60;16.60;;;;;;;9.94;82.81;98253.91;213999;1308;26074;-72
2022/11/03 21:56:52;;;;;;;28.20;15.60;;;;;;;9.96;82.96;98244.39;214074;1308;24355;-73
2022/11/03 22:01:54;;;;;;;28.00;14.50;;;;;;;9.97;83.04;98242.73;213978;1308;22535;-72
2022/11/03 22:06:57;;;;;;;29.70;15.20;;;;;;;9.97;82.90;98237.60;214175;1308;25224;-73
2022/11/03 22:12:04;;;;;;;24.40;13.60;;;;;;;9.98;83.06;98235.19;213896;1309;22637;-73
2022/11/03 22:17:06;;;;;;;29.40;14.60;;;;;;;10.00;83.06;98219.06;214241;1308;22466;-72
2022/11/03 22:27:34;;;;;;;17.70;10.80;;;;;;;10.08;83.10;98199.66;214250;1308;23095;-72
2022/11/03 22:32:38;;;;;;;17.80;9.10;;;;;;;10.16;82.92;98192.16;213918;1308;26080;-73
2022/11/03 22:37:40;;;;;;;15.60;7.50;;;;;;;10.32;82.50;98195.45;214136;1309;22493;-72
2022/11/03 22:48:08;;;;;;;19.10;10.20;;;;;;;10.61;81.57;98176.66;213996;1308;22725;-75
2022/11/03 22:58:32;;;;;;;22.60;12.00;;;;;;;10.60;81.30;98167.36;214143;1309;22469;-72
2022/11/03 23:03:35;;;;;;;21.50;11.40;;;;;;;10.44;81.45;98159.20;213966;1308;25364;-72
2022/11/03 23:08:39;;;;;;;22.30;12.00;;;;;;;10.29;81.48;98154.41;214046;1309;23927;-72
2022/11/03 23:13:43;;;;;;;23.00;12.30;;;;;;;10.12;81.54;98146.80;214134;1309;22550;-72
2022/11/03 23:29:28;;;;;;;22.20;12.20;;;;;;;9.53;82.55;98116.10;214134;1309;22618;-72
2022/11/03 23:34:30;;;;;;;19.20;10.10;;;;;;;9.42;82.84;98108.62;213977;1309;22915;-73
2022/11/03 23:39:31;;;;;;;19.90;12.00;;;;;;;9.30;83.07;98095.81;214034;1308;22694;-72
2022/11/03 23:49:54;;;;;;;27.20;12.70;;;;;;;9.08;83.51;98073.60;214090;1300;23068;-72
2022/11/03 23:54:56;;;;;;;17.10;9.60;;;;;;;8.99;83.77;98064.83;214029;1308;22524;-72
2022/11/03 23:59:57;;;;;;;23.20;12.30;;;;;;;8.94;83.86;98063.90;214207;1299;23243;-71
